sensor_id;sensor_type;location;lat;lon;timestamp;P1;durP1;ratioP1;P2;durP2;ratioP2
44143;SDS011;43510;51.920;4.492;2022-10-31T00:01:26;7.07;;;2.03;;
44143;SDS011;43510;51.920;4.492;2022-10-31T00:03:53;4.03;;;1.65;;
44143;SDS011;43510;51.920;4.492;2022-10-31T00:06:18;4.40;;;1.80;;
44143;SDS011;43510;51.920;4.492;2022-10-31T00:08:49;7.30;;;2.20;;
44143;SDS011;43510;51.920;4.492;2022-10-31T00:11:21;5.72;;;1.77;;
44143;SDS011;43510;51.920;4.492;2022-10-31T00:13:46;8.43;;;1.88;;
44143;SDS011;43510;51.920;4.492;2022-10-31T00:16:19;6.20;;;2.13;;
44143;SDS011;43510;51.920;4.492;2022-10-31T00:18:49;5.18;;;1.80;;
44143;SDS011;43510;51.920;4.492;2022-10-31T00:21:16;8.13;;;2.72;;
44143;SDS011;43510;51.920;4.492;2022-10-31T00:23:41;5.18;;;2.13;;
44143;SDS011;43510;51.920;4.492;2022-10-31T00:26:07;5.32;;;2.30;;
44143;SDS011;43510;51.920;4.492;2022-10-31T00:28:32;5.70;;;2.08;;
44143;SDS011;43510;51.920;4.492;2022-10-31T00:31:02;3.60;;;1.77;;
44143;SDS011;43510;51.920;4.492;2022-10-31T00:33:28;7.00;;;2.55;;
44143;SDS011;43510;51.920;4.492;2022-10-31T00:35:54;7.03;;;2.35;;
44143;SDS011;43510;51.920;4.492;2022-10-31T00:38:19;3.63;;;1.75;;
44143;SDS011;43510;51.920;4.492;2022-10-31T00:40:45;6.38;;;2.42;;
44143;SDS011;43510;51.920;4.492;2022-10-31T00:43:10;6.15;;;2.45;;
44143;SDS011;43510;51.920;4.492;2022-10-31T00:45:35;7.85;;;2.88;;
44143;SDS011;43510;51.920;4.492;2022-10-31T00:48:01;6.93;;;2.30;;
44143;SDS011;43510;51.920;4.492;2022-10-31T00:50:26;7.78;;;2.60;;
44143;SDS011;43510;51.920;4.492;2022-10-31T00:52:53;7.03;;;2.47;;
44143;SDS011;43510;51.920;4.492;2022-10-31T00:55:18;6.93;;;2.60;;
44143;SDS011;43510;51.920;4.492;2022-10-31T00:57:47;12.63;;;3.65;;
44143;SDS011;43510;51.920;4.492;2022-10-31T01:00:13;6.95;;;3.08;;
44143;SDS011;43510;51.920;4.492;2022-10-31T01:02:39;9.00;;;2.50;;
44143;SDS011;43510;51.920;4.492;2022-10-31T01:05:04;8.30;;;3.22;;
44143;SDS011;43510;51.920;4.492;2022-10-31T01:07:30;9.32;;;2.92;;
44143;SDS011;43510;51.920;4.492;2022-10-31T01:09:55;7.40;;;2.97;;
44143;SDS011;43510;51.920;4.492;2022-10-31T01:12:20;6.78;;;3.25;;
44143;SDS011;43510;51.920;4.492;2022-10-31T01:14:46;5.10;;;2.85;;
44143;SDS011;43510;51.920;4.492;2022-10-31T01:17:12;7.35;;;2.92;;
44143;SDS011;43510;51.920;4.492;2022-10-31T01:19:38;6.90;;;3.20;;
44143;SDS011;43510;51.920;4.492;2022-10-31T01:22:04;10.38;;;3.65;;
44143;SDS011;43510;51.920;4.492;2022-10-31T01:24:29;9.75;;;3.60;;
44143;SDS011;43510;51.920;4.492;2022-10-31T01:26:55;8.25;;;3.17;;
44143;SDS011;43510;51.920;4.492;2022-10-31T01:29:20;10.55;;;3.63;;
44143;SDS011;43510;51.920;4.492;2022-10-31T01:31:45;8.52;;;3.50;;
44143;SDS011;43510;51.920;4.492;2022-10-31T01:34:15;7.45;;;3.58;;
44143;SDS011;43510;51.920;4.492;2022-10-31T01:36:42;10.95;;;3.88;;
44143;SDS011;43510;51.920;4.492;2022-10-31T01:39:11;7.65;;;3.63;;
44143;SDS011;43510;51.920;4.492;2022-10-31T01:41:39;8.70;;;3.53;;
44143;SDS011;43510;51.920;4.492;2022-10-31T01:46:52;9.57;;;4.03;;
44143;SDS011;43510;51.920;4.492;2022-10-31T01:49:43;9.68;;;4.40;;
44143;SDS011;43510;51.920;4.492;2022-10-31T01:52:36;8.32;;;4.10;;
44143;SDS011;43510;51.920;4.492;2022-10-31T01:55:09;12.88;;;4.13;;
44143;SDS011;43510;51.920;4.492;2022-10-31T01:57:41;11.05;;;4.50;;
44143;SDS011;43510;51.920;4.492;2022-10-31T02:00:11;9.17;;;4.30;;
44143;SDS011;43510;51.920;4.492;2022-10-31T02:02:38;10.13;;;4.40;;
44143;SDS011;43510;51.920;4.492;2022-10-31T02:05:04;11.98;;;4.38;;
44143;SDS011;43510;51.920;4.492;2022-10-31T02:07:43;11.85;;;5.25;;
44143;SDS011;43510;51.920;4.492;2022-10-31T02:10:16;9.85;;;4.50;;
44143;SDS011;43510;51.920;4.492;2022-10-31T02:12:41;9.88;;;4.55;;
44143;SDS011;43510;51.920;4.492;2022-10-31T02:15:08;15.73;;;5.03;;
44143;SDS011;43510;51.920;4.492;2022-10-31T02:17:34;11.95;;;4.55;;
44143;SDS011;43510;51.920;4.492;2022-10-31T02:20:12;10.23;;;4.57;;
44143;SDS011;43510;51.920;4.492;2022-10-31T02:33:39;11.25;;;4.93;;
44143;SDS011;43510;51.920;4.492;2022-10-31T02:36:32;9.90;;;5.53;;
44143;SDS011;43510;51.920;4.492;2022-10-31T02:46:35;10.55;;;5.78;;
44143;SDS011;43510;51.920;4.492;2022-10-31T02:51:57;11.82;;;6.13;;
44143;SDS011;43510;51.920;4.492;2022-10-31T02:54:23;15.60;;;6.88;;
44143;SDS011;43510;51.920;4.492;2022-10-31T02:56:52;12.98;;;6.55;;
44143;SDS011;43510;51.920;4.492;2022-10-31T02:59:23;13.35;;;7.57;;
44143;SDS011;43510;51.920;4.492;2022-10-31T03:07:08;15.95;;;7.78;;
44143;SDS011;43510;51.920;4.492;2022-10-31T03:12:15;14.18;;;7.22;;
44143;SDS011;43510;51.920;4.492;2022-10-31T03:14:56;15.10;;;6.95;;
44143;SDS011;43510;51.920;4.492;2022-10-31T03:19:55;16.83;;;6.78;;
44143;SDS011;43510;51.920;4.492;2022-10-31T03:22:25;15.95;;;7.65;;
44143;SDS011;43510;51.920;4.492;2022-10-31T03:24:54;18.42;;;7.63;;
44143;SDS011;43510;51.920;4.492;2022-10-31T03:27:23;14.07;;;6.95;;
44143;SDS011;43510;51.920;4.492;2022-10-31T03:29:51;13.82;;;6.95;;
44143;SDS011;43510;51.920;4.492;2022-10-31T03:32:27;17.00;;;6.50;;
44143;SDS011;43510;51.920;4.492;2022-10-31T03:34:58;16.67;;;7.78;;
44143;SDS011;43510;51.920;4.492;2022-10-31T03:37:26;15.27;;;7.53;;
44143;SDS011;43510;51.920;4.492;2022-10-31T03:39:54;13.82;;;6.78;;
44143;SDS011;43510;51.920;4.492;2022-10-31T03:42:23;14.18;;;7.80;;
44143;SDS011;43510;51.920;4.492;2022-10-31T03:44:51;13.68;;;7.43;;
44143;SDS011;43510;51.920;4.492;2022-10-31T03:47:20;14.02;;;7.30;;
44143;SDS011;43510;51.920;4.492;2022-10-31T03:49:46;12.60;;;6.85;;
44143;SDS011;43510;51.920;4.492;2022-10-31T03:52:25;11.18;;;7.18;;
44143;SDS011;43510;51.920;4.492;2022-10-31T03:54:54;15.30;;;6.70;;
44143;SDS011;43510;51.920;4.492;2022-10-31T04:00:03;14.35;;;6.95;;
44143;SDS011;43510;51.920;4.492;2022-10-31T04:02:34;14.40;;;6.95;;
44143;SDS011;43510;51.920;4.492;2022-10-31T04:05:05;13.50;;;6.57;;
44143;SDS011;43510;51.920;4.492;2022-10-31T04:07:35;13.95;;;6.68;;
44143;SDS011;43510;51.920;4.492;2022-10-31T04:10:05;13.75;;;6.80;;
44143;SDS011;43510;51.920;4.492;2022-10-31T04:12:35;16.42;;;6.78;;
44143;SDS011;43510;51.920;4.492;2022-10-31T04:15:03;18.25;;;7.22;;
44143;SDS011;43510;51.920;4.492;2022-10-31T04:17:31;17.73;;;7.45;;
44143;SDS011;43510;51.920;4.492;2022-10-31T04:19:59;14.50;;;6.93;;
44143;SDS011;43510;51.920;4.492;2022-10-31T04:22:25;11.85;;;6.68;;
44143;SDS011;43510;51.920;4.492;2022-10-31T04:24:51;14.85;;;7.05;;
44143;SDS011;43510;51.920;4.492;2022-10-31T04:27:16;12.80;;;6.68;;
44143;SDS011;43510;51.920;4.492;2022-10-31T04:29:42;14.15;;;7.07;;
44143;SDS011;43510;51.920;4.492;2022-10-31T04:32:07;16.33;;;7.72;;
44143;SDS011;43510;51.920;4.492;2022-10-31T04:34:32;14.65;;;7.53;;
44143;SDS011;43510;51.920;4.492;2022-10-31T04:36:58;15.48;;;7.20;;
44143;SDS011;43510;51.920;4.492;2022-10-31T04:39:23;12.63;;;7.10;;
44143;SDS011;43510;51.920;4.492;2022-10-31T04:41:49;17.17;;;8.23;;
44143;SDS011;43510;51.920;4.492;2022-10-31T04:44:14;13.27;;;7.55;;
44143;SDS011;43510;51.920;4.492;2022-10-31T04:46:40;15.38;;;7.35;;
44143;SDS011;43510;51.920;4.492;2022-10-31T04:49:05;15.40;;;8.23;;
44143;SDS011;43510;51.920;4.492;2022-10-31T04:51:31;15.35;;;8.13;;
44143;SDS011;43510;51.920;4.492;2022-10-31T04:53:59;15.65;;;8.40;;
44143;SDS011;43510;51.920;4.492;2022-10-31T04:56:25;15.45;;;8.35;;
44143;SDS011;43510;51.920;4.492;2022-10-31T04:58:50;13.48;;;7.32;;
44143;SDS011;43510;51.920;4.492;2022-10-31T05:01:15;17.75;;;8.63;;
44143;SDS011;43510;51.920;4.492;2022-10-31T05:03:41;15.18;;;7.95;;
44143;SDS011;43510;51.920;4.492;2022-10-31T05:06:07;15.95;;;7.88;;
44143;SDS011;43510;51.920;4.492;2022-10-31T05:08:32;17.42;;;8.55;;
44143;SDS011;43510;51.920;4.492;2022-10-31T05:11:01;20.00;;;8.77;;
44143;SDS011;43510;51.920;4.492;2022-10-31T05:13:28;18.00;;;9.23;;
44143;SDS011;43510;51.920;4.492;2022-10-31T05:15:54;16.27;;;8.80;;
44143;SDS011;43510;51.920;4.492;2022-10-31T05:18:19;16.45;;;8.50;;
44143;SDS011;43510;51.920;4.492;2022-10-31T05:20:45;19.15;;;8.35;;
44143;SDS011;43510;51.920;4.492;2022-10-31T05:23:10;23.73;;;9.68;;
44143;SDS011;43510;51.920;4.492;2022-10-31T05:25:36;20.08;;;9.10;;
44143;SDS011;43510;51.920;4.492;2022-10-31T05:28:01;24.00;;;9.32;;
44143;SDS011;43510;51.920;4.492;2022-10-31T05:30:28;28.67;;;8.93;;
44143;SDS011;43510;51.920;4.492;2022-10-31T05:32:55;18.67;;;8.95;;
44143;SDS011;43510;51.920;4.492;2022-10-31T05:35:22;20.00;;;8.43;;
44143;SDS011;43510;51.920;4.492;2022-10-31T05:37:49;20.27;;;8.68;;
44143;SDS011;43510;51.920;4.492;2022-10-31T05:40:15;18.17;;;8.63;;
44143;SDS011;43510;51.920;4.492;2022-10-31T05:42:42;22.02;;;10.15;;
44143;SDS011;43510;51.920;4.492;2022-10-31T05:45:09;21.33;;;9.88;;
44143;SDS011;43510;51.920;4.492;2022-10-31T05:47:38;21.92;;;10.20;;
44143;SDS011;43510;51.920;4.492;2022-10-31T05:50:04;24.20;;;10.80;;
44143;SDS011;43510;51.920;4.492;2022-10-31T05:52:31;31.50;;;10.23;;
44143;SDS011;43510;51.920;4.492;2022-10-31T05:54:57;21.13;;;10.52;;
44143;SDS011;43510;51.920;4.492;2022-10-31T05:57:22;20.70;;;10.43;;
44143;SDS011;43510;51.920;4.492;2022-10-31T05:59:48;19.67;;;10.43;;
44143;SDS011;43510;51.920;4.492;2022-10-31T06:02:13;21.60;;;9.48;;
44143;SDS011;43510;51.920;4.492;2022-10-31T06:04:38;20.75;;;10.40;;
44143;SDS011;43510;51.920;4.492;2022-10-31T06:07:04;22.00;;;11.40;;
44143;SDS011;43510;51.920;4.492;2022-10-31T06:09:29;20.55;;;9.82;;
44143;SDS011;43510;51.920;4.492;2022-10-31T06:11:54;21.13;;;10.43;;
44143;SDS011;43510;51.920;4.492;2022-10-31T06:14:20;23.15;;;10.77;;
44143;SDS011;43510;51.920;4.492;2022-10-31T06:16:47;20.67;;;10.50;;
44143;SDS011;43510;51.920;4.492;2022-10-31T06:19:12;25.35;;;11.30;;
44143;SDS011;43510;51.920;4.492;2022-10-31T06:21:38;24.45;;;11.43;;
44143;SDS011;43510;51.920;4.492;2022-10-31T06:24:03;23.83;;;11.30;;
44143;SDS011;43510;51.920;4.492;2022-10-31T06:26:29;24.60;;;10.68;;
44143;SDS011;43510;51.920;4.492;2022-10-31T06:28:55;24.70;;;11.07;;
44143;SDS011;43510;51.920;4.492;2022-10-31T06:31:24;21.60;;;10.70;;
44143;SDS011;43510;51.920;4.492;2022-10-31T06:33:49;22.42;;;10.75;;
44143;SDS011;43510;51.920;4.492;2022-10-31T06:36:15;23.88;;;10.77;;
44143;SDS011;43510;51.920;4.492;2022-10-31T06:38:40;26.52;;;10.10;;
44143;SDS011;43510;51.920;4.492;2022-10-31T06:41:06;23.75;;;10.98;;
44143;SDS011;43510;51.920;4.492;2022-10-31T06:43:33;28.92;;;12.68;;
44143;SDS011;43510;51.920;4.492;2022-10-31T06:46:01;25.65;;;11.20;;
44143;SDS011;43510;51.920;4.492;2022-10-31T06:48:28;31.10;;;12.00;;
44143;SDS011;43510;51.920;4.492;2022-10-31T06:50:56;26.35;;;11.32;;
44143;SDS011;43510;51.920;4.492;2022-10-31T06:53:24;24.92;;;12.05;;
44143;SDS011;43510;51.920;4.492;2022-10-31T06:55:49;22.55;;;11.63;;
44143;SDS011;43510;51.920;4.492;2022-10-31T06:58:14;26.75;;;11.35;;
44143;SDS011;43510;51.920;4.492;2022-10-31T07:00:40;25.90;;;12.15;;
44143;SDS011;43510;51.920;4.492;2022-10-31T07:08:04;27.77;;;12.10;;
44143;SDS011;43510;51.920;4.492;2022-10-31T07:10:34;25.50;;;11.88;;
44143;SDS011;43510;51.920;4.492;2022-10-31T07:13:02;20.73;;;11.23;;
44143;SDS011;43510;51.920;4.492;2022-10-31T07:15:32;27.75;;;13.23;;
44143;SDS011;43510;51.920;4.492;2022-10-31T07:18:00;27.95;;;13.25;;
44143;SDS011;43510;51.920;4.492;2022-10-31T07:20:28;25.08;;;12.95;;
44143;SDS011;43510;51.920;4.492;2022-10-31T07:22:55;31.55;;;13.65;;
44143;SDS011;43510;51.920;4.492;2022-10-31T07:25:21;25.17;;;13.50;;
44143;SDS011;43510;51.920;4.492;2022-10-31T07:27:47;28.40;;;12.90;;
44143;SDS011;43510;51.920;4.492;2022-10-31T07:30:13;30.88;;;13.85;;
44143;SDS011;43510;51.920;4.492;2022-10-31T07:32:43;29.55;;;14.15;;
44143;SDS011;43510;51.920;4.492;2022-10-31T07:35:15;26.17;;;13.10;;
44143;SDS011;43510;51.920;4.492;2022-10-31T07:37:44;30.80;;;14.23;;
44143;SDS011;43510;51.920;4.492;2022-10-31T07:40:12;33.15;;;15.38;;
44143;SDS011;43510;51.920;4.492;2022-10-31T07:42:38;37.08;;;13.68;;
44143;SDS011;43510;51.920;4.492;2022-10-31T07:45:05;31.27;;;14.95;;
44143;SDS011;43510;51.920;4.492;2022-10-31T07:47:39;25.73;;;13.65;;
44143;SDS011;43510;51.920;4.492;2022-10-31T07:50:18;27.00;;;13.27;;
44143;SDS011;43510;51.920;4.492;2022-10-31T07:55:40;29.83;;;14.10;;
44143;SDS011;43510;51.920;4.492;2022-10-31T07:58:06;33.83;;;16.23;;
44143;SDS011;43510;51.920;4.492;2022-10-31T08:00:37;35.83;;;16.38;;
44143;SDS011;43510;51.920;4.492;2022-10-31T08:03:07;38.30;;;15.63;;
44143;SDS011;43510;51.920;4.492;2022-10-31T08:05:38;39.17;;;15.52;;
44143;SDS011;43510;51.920;4.492;2022-10-31T08:08:10;43.70;;;15.68;;
44143;SDS011;43510;51.920;4.492;2022-10-31T08:10:38;44.45;;;17.10;;
44143;SDS011;43510;51.920;4.492;2022-10-31T08:13:07;33.72;;;15.70;;
44143;SDS011;43510;51.920;4.492;2022-10-31T08:15:35;40.00;;;17.73;;
44143;SDS011;43510;51.920;4.492;2022-10-31T08:18:02;42.58;;;16.17;;
44143;SDS011;43510;51.920;4.492;2022-10-31T08:20:29;41.42;;;16.08;;
44143;SDS011;43510;51.920;4.492;2022-10-31T08:22:55;38.30;;;15.80;;
44143;SDS011;43510;51.920;4.492;2022-10-31T08:25:22;37.05;;;15.43;;
44143;SDS011;43510;51.920;4.492;2022-10-31T08:27:49;39.08;;;16.30;;
44143;SDS011;43510;51.920;4.492;2022-10-31T08:30:21;33.72;;;14.73;;
44143;SDS011;43510;51.920;4.492;2022-10-31T08:32:57;36.30;;;15.93;;
44143;SDS011;43510;51.920;4.492;2022-10-31T08:37:54;32.60;;;14.80;;
44143;SDS011;43510;51.920;4.492;2022-10-31T08:40:20;33.53;;;15.60;;
44143;SDS011;43510;51.920;4.492;2022-10-31T08:42:46;35.40;;;15.48;;
44143;SDS011;43510;51.920;4.492;2022-10-31T08:45:12;31.20;;;14.63;;
44143;SDS011;43510;51.920;4.492;2022-10-31T08:47:37;29.05;;;14.48;;
44143;SDS011;43510;51.920;4.492;2022-10-31T08:50:03;29.67;;;13.82;;
44143;SDS011;43510;51.920;4.492;2022-10-31T08:52:28;26.70;;;13.23;;
44143;SDS011;43510;51.920;4.492;2022-10-31T08:54:54;28.85;;;13.35;;
44143;SDS011;43510;51.920;4.492;2022-10-31T08:59:47;27.58;;;12.25;;
44143;SDS011;43510;51.920;4.492;2022-10-31T09:02:13;26.67;;;11.32;;
44143;SDS011;43510;51.920;4.492;2022-10-31T09:04:38;24.23;;;11.45;;
44143;SDS011;43510;51.920;4.492;2022-10-31T09:07:03;21.02;;;10.27;;
44143;SDS011;43510;51.920;4.492;2022-10-31T09:09:29;19.05;;;10.88;;
44143;SDS011;43510;51.920;4.492;2022-10-31T09:11:54;22.63;;;11.77;;
44143;SDS011;43510;51.920;4.492;2022-10-31T09:14:19;27.48;;;11.85;;
44143;SDS011;43510;51.920;4.492;2022-10-31T09:16:45;23.92;;;10.85;;
44143;SDS011;43510;51.920;4.492;2022-10-31T09:19:10;22.27;;;9.25;;
44143;SDS011;43510;51.920;4.492;2022-10-31T09:21:35;20.10;;;9.88;;
44143;SDS011;43510;51.920;4.492;2022-10-31T09:24:01;18.25;;;9.15;;
44143;SDS011;43510;51.920;4.492;2022-10-31T09:26:26;19.85;;;9.77;;
44143;SDS011;43510;51.920;4.492;2022-10-31T09:28:52;21.25;;;9.77;;
44143;SDS011;43510;51.920;4.492;2022-10-31T09:31:17;20.92;;;10.80;;
44143;SDS011;43510;51.920;4.492;2022-10-31T09:33:42;21.00;;;10.00;;
44143;SDS011;43510;51.920;4.492;2022-10-31T09:36:08;23.88;;;10.13;;
44143;SDS011;43510;51.920;4.492;2022-10-31T09:38:33;21.10;;;9.52;;
44143;SDS011;43510;51.920;4.492;2022-10-31T09:43:46;19.30;;;9.40;;
44143;SDS011;43510;51.920;4.492;2022-10-31T09:51:37;19.88;;;8.75;;
44143;SDS011;43510;51.920;4.492;2022-10-31T09:54:27;16.23;;;9.02;;
44143;SDS011;43510;51.920;4.492;2022-10-31T09:56:59;24.58;;;9.35;;
44143;SDS011;43510;51.920;4.492;2022-10-31T09:59:34;25.63;;;9.02;;
44143;SDS011;43510;51.920;4.492;2022-10-31T10:07:12;22.13;;;8.73;;
44143;SDS011;43510;51.920;4.492;2022-10-31T10:09:46;17.48;;;8.50;;
44143;SDS011;43510;51.920;4.492;2022-10-31T10:26:43;20.83;;;9.85;;
44143;SDS011;43510;51.920;4.492;2022-10-31T10:29:27;16.95;;;8.20;;
44143;SDS011;43510;51.920;4.492;2022-10-31T10:31:58;20.55;;;8.35;;
44143;SDS011;43510;51.920;4.492;2022-10-31T10:37:08;20.85;;;8.07;;
44143;SDS011;43510;51.920;4.492;2022-10-31T10:39:42;16.70;;;7.43;;
44143;SDS011;43510;51.920;4.492;2022-10-31T10:42:13;17.55;;;7.65;;
44143;SDS011;43510;51.920;4.492;2022-10-31T10:44:59;18.48;;;7.25;;
44143;SDS011;43510;51.920;4.492;2022-10-31T10:48:01;15.07;;;7.47;;
44143;SDS011;43510;51.920;4.492;2022-10-31T10:50:34;18.08;;;7.78;;
44143;SDS011;43510;51.920;4.492;2022-10-31T10:59:00;17.00;;;7.70;;
44143;SDS011;43510;51.920;4.492;2022-10-31T11:01:27;17.08;;;8.30;;
44143;SDS011;43510;51.920;4.492;2022-10-31T11:03:53;22.20;;;9.57;;
44143;SDS011;43510;51.920;4.492;2022-10-31T11:06:19;18.90;;;9.50;;
44143;SDS011;43510;51.920;4.492;2022-10-31T11:08:50;17.83;;;9.23;;
44143;SDS011;43510;51.920;4.492;2022-10-31T11:13:42;22.73;;;9.90;;
44143;SDS011;43510;51.920;4.492;2022-10-31T11:16:11;20.27;;;9.63;;
44143;SDS011;43510;51.920;4.492;2022-10-31T11:18:42;21.67;;;10.23;;
44143;SDS011;43510;51.920;4.492;2022-10-31T11:21:26;19.48;;;9.70;;
44143;SDS011;43510;51.920;4.492;2022-10-31T11:26:34;20.10;;;9.43;;
44143;SDS011;43510;51.920;4.492;2022-10-31T11:29:03;25.20;;;9.40;;
44143;SDS011;43510;51.920;4.492;2022-10-31T11:31:35;22.02;;;10.80;;
44143;SDS011;43510;51.920;4.492;2022-10-31T11:34:02;24.70;;;10.30;;
44143;SDS011;43510;51.920;4.492;2022-10-31T11:36:32;22.75;;;11.38;;
44143;SDS011;43510;51.920;4.492;2022-10-31T11:39:00;22.15;;;10.82;;
44143;SDS011;43510;51.920;4.492;2022-10-31T11:41:34;31.17;;;10.77;;
44143;SDS011;43510;51.920;4.492;2022-10-31T11:44:19;23.25;;;11.02;;
44143;SDS011;43510;51.920;4.492;2022-10-31T11:46:51;27.07;;;11.97;;
44143;SDS011;43510;51.920;4.492;2022-10-31T11:49:27;25.02;;;11.85;;
44143;SDS011;43510;51.920;4.492;2022-10-31T11:51:58;30.23;;;11.90;;
44143;SDS011;43510;51.920;4.492;2022-10-31T11:54:27;32.72;;;12.38;;
44143;SDS011;43510;51.920;4.492;2022-10-31T11:56:56;29.42;;;12.10;;
44143;SDS011;43510;51.920;4.492;2022-10-31T11:59:50;26.40;;;13.27;;
44143;SDS011;43510;51.920;4.492;2022-10-31T12:02:17;35.28;;;13.50;;
44143;SDS011;43510;51.920;4.492;2022-10-31T12:04:45;25.80;;;12.77;;
44143;SDS011;43510;51.920;4.492;2022-10-31T12:07:14;37.30;;;13.35;;
44143;SDS011;43510;51.920;4.492;2022-10-31T12:09:39;31.52;;;14.65;;
44143;SDS011;43510;51.920;4.492;2022-10-31T12:12:25;30.60;;;12.52;;
44143;SDS011;43510;51.920;4.492;2022-10-31T12:21:04;31.38;;;14.63;;
44143;SDS011;43510;51.920;4.492;2022-10-31T12:23:29;39.90;;;15.07;;
44143;SDS011;43510;51.920;4.492;2022-10-31T12:42:40;28.25;;;13.65;;
44143;SDS011;43510;51.920;4.492;2022-10-31T12:56:29;36.30;;;14.43;;
44143;SDS011;43510;51.920;4.492;2022-10-31T12:59:11;35.85;;;14.95;;
44143;SDS011;43510;51.920;4.492;2022-10-31T13:01:56;29.90;;;14.50;;
44143;SDS011;43510;51.920;4.492;2022-10-31T13:06:58;34.72;;;16.33;;
44143;SDS011;43510;51.920;4.492;2022-10-31T13:09:50;33.65;;;15.63;;
44143;SDS011;43510;51.920;4.492;2022-10-31T13:12:18;30.30;;;14.15;;
44143;SDS011;43510;51.920;4.492;2022-10-31T13:14:46;40.70;;;16.75;;
44143;SDS011;43510;51.920;4.492;2022-10-31T13:17:37;32.33;;;15.13;;
44143;SDS011;43510;51.920;4.492;2022-10-31T13:20:15;31.98;;;15.07;;
44143;SDS011;43510;51.920;4.492;2022-10-31T13:22:46;36.33;;;14.85;;
44143;SDS011;43510;51.920;4.492;2022-10-31T13:25:16;29.58;;;13.82;;
44143;SDS011;43510;51.920;4.492;2022-10-31T13:27:53;33.92;;;14.90;;
44143;SDS011;43510;51.920;4.492;2022-10-31T13:30:24;32.17;;;14.68;;
44143;SDS011;43510;51.920;4.492;2022-10-31T13:32:59;35.67;;;15.85;;
44143;SDS011;43510;51.920;4.492;2022-10-31T13:35:39;36.58;;;15.35;;
44143;SDS011;43510;51.920;4.492;2022-10-31T13:40:45;37.10;;;15.20;;
44143;SDS011;43510;51.920;4.492;2022-10-31T13:46:41;32.38;;;15.52;;
44143;SDS011;43510;51.920;4.492;2022-10-31T13:49:24;38.83;;;16.42;;
44143;SDS011;43510;51.920;4.492;2022-10-31T13:52:04;34.53;;;15.43;;
44143;SDS011;43510;51.920;4.492;2022-10-31T13:57:15;43.85;;;16.35;;
44143;SDS011;43510;51.920;4.492;2022-10-31T13:59:52;33.72;;;16.10;;
44143;SDS011;43510;51.920;4.492;2022-10-31T14:02:28;39.22;;;17.08;;
44143;SDS011;43510;51.920;4.492;2022-10-31T14:04:56;43.53;;;16.95;;
44143;SDS011;43510;51.920;4.492;2022-10-31T14:07:25;34.38;;;15.95;;
44143;SDS011;43510;51.920;4.492;2022-10-31T14:09:54;42.33;;;17.52;;
44143;SDS011;43510;51.920;4.492;2022-10-31T14:15:39;39.47;;;17.63;;
44143;SDS011;43510;51.920;4.492;2022-10-31T14:17:47;39.63;;;17.25;;
44143;SDS011;43510;51.920;4.492;2022-10-31T14:22:41;39.55;;;18.65;;
44143;SDS011;43510;51.920;4.492;2022-10-31T14:27:58;36.20;;;16.77;;
44143;SDS011;43510;51.920;4.492;2022-10-31T14:30:25;46.63;;;19.02;;
44143;SDS011;43510;51.920;4.492;2022-10-31T14:32:54;38.15;;;17.67;;
44143;SDS011;43510;51.920;4.492;2022-10-31T14:35:24;38.25;;;18.60;;
44143;SDS011;43510;51.920;4.492;2022-10-31T14:52:08;34.97;;;18.17;;
44143;SDS011;43510;51.920;4.492;2022-10-31T14:54:43;49.15;;;20.75;;
44143;SDS011;43510;51.920;4.492;2022-10-31T14:57:15;43.70;;;20.67;;
44143;SDS011;43510;51.920;4.492;2022-10-31T14:59:45;42.45;;;18.65;;
44143;SDS011;43510;51.920;4.492;2022-10-31T15:02:23;46.33;;;19.10;;
44143;SDS011;43510;51.920;4.492;2022-10-31T15:04:53;44.92;;;18.75;;
44143;SDS011;43510;51.920;4.492;2022-10-31T15:07:25;40.70;;;18.38;;
44143;SDS011;43510;51.920;4.492;2022-10-31T15:09:58;40.15;;;19.88;;
44143;SDS011;43510;51.920;4.492;2022-10-31T15:12:26;45.75;;;20.98;;
44143;SDS011;43510;51.920;4.492;2022-10-31T15:15:20;39.67;;;21.15;;
44143;SDS011;43510;51.920;4.492;2022-10-31T15:17:52;37.67;;;20.85;;
44143;SDS011;43510;51.920;4.492;2022-10-31T15:20:21;43.10;;;21.38;;
44143;SDS011;43510;51.920;4.492;2022-10-31T15:22:54;45.40;;;20.52;;
44143;SDS011;43510;51.920;4.492;2022-10-31T15:25:22;43.72;;;20.83;;
44143;SDS011;43510;51.920;4.492;2022-10-31T15:27:51;41.63;;;20.52;;
44143;SDS011;43510;51.920;4.492;2022-10-31T15:30:22;47.90;;;22.42;;
44143;SDS011;43510;51.920;4.492;2022-10-31T15:32:50;41.78;;;20.65;;
44143;SDS011;43510;51.920;4.492;2022-10-31T15:35:23;42.40;;;18.85;;
44143;SDS011;43510;51.920;4.492;2022-10-31T15:37:52;40.47;;;18.65;;
44143;SDS011;43510;51.920;4.492;2022-10-31T15:40:19;49.10;;;19.88;;
44143;SDS011;43510;51.920;4.492;2022-10-31T15:42:51;41.72;;;20.70;;
44143;SDS011;43510;51.920;4.492;2022-10-31T15:45:26;39.85;;;19.30;;
44143;SDS011;43510;51.920;4.492;2022-10-31T15:48:00;38.13;;;20.65;;
44143;SDS011;43510;51.920;4.492;2022-10-31T15:50:28;45.67;;;19.75;;
44143;SDS011;43510;51.920;4.492;2022-10-31T15:52:57;42.92;;;20.20;;
44143;SDS011;43510;51.920;4.492;2022-10-31T15:55:26;41.88;;;19.15;;
44143;SDS011;43510;51.920;4.492;2022-10-31T15:57:55;37.53;;;18.50;;
44143;SDS011;43510;51.920;4.492;2022-10-31T16:00:30;46.75;;;20.33;;
44143;SDS011;43510;51.920;4.492;2022-10-31T16:03:21;41.20;;;18.48;;
44143;SDS011;43510;51.920;4.492;2022-10-31T16:05:57;43.10;;;19.35;;
44143;SDS011;43510;51.920;4.492;2022-10-31T16:10:50;44.33;;;19.98;;
44143;SDS011;43510;51.920;4.492;2022-10-31T16:13:17;38.50;;;18.65;;
44143;SDS011;43510;51.920;4.492;2022-10-31T16:15:49;41.78;;;18.98;;
44143;SDS011;43510;51.920;4.492;2022-10-31T16:18:18;49.92;;;19.92;;
44143;SDS011;43510;51.920;4.492;2022-10-31T16:20:48;37.38;;;18.83;;
44143;SDS011;43510;51.920;4.492;2022-10-31T16:23:19;37.30;;;17.83;;
44143;SDS011;43510;51.920;4.492;2022-10-31T16:25:47;38.38;;;18.15;;
44143;SDS011;43510;51.920;4.492;2022-10-31T16:28:36;42.47;;;18.65;;
44143;SDS011;43510;51.920;4.492;2022-10-31T16:31:13;44.05;;;18.23;;
44143;SDS011;43510;51.920;4.492;2022-10-31T16:33:39;39.13;;;16.63;;
44143;SDS011;43510;51.920;4.492;2022-10-31T16:39:04;36.55;;;17.48;;
44143;SDS011;43510;51.920;4.492;2022-10-31T16:41:34;36.92;;;16.73;;
44143;SDS011;43510;51.920;4.492;2022-10-31T16:44:03;30.92;;;16.08;;
44143;SDS011;43510;51.920;4.492;2022-10-31T16:46:31;39.35;;;16.35;;
44143;SDS011;43510;51.920;4.492;2022-10-31T16:49:01;36.60;;;15.80;;
44143;SDS011;43510;51.920;4.492;2022-10-31T16:51:26;38.22;;;14.75;;
44143;SDS011;43510;51.920;4.492;2022-10-31T16:53:52;28.75;;;14.43;;
44143;SDS011;43510;51.920;4.492;2022-10-31T16:56:21;36.60;;;15.50;;
44143;SDS011;43510;51.920;4.492;2022-10-31T16:58:53;33.53;;;14.65;;
44143;SDS011;43510;51.920;4.492;2022-10-31T17:01:19;30.77;;;13.95;;
44143;SDS011;43510;51.920;4.492;2022-10-31T17:03:45;35.33;;;15.82;;
44143;SDS011;43510;51.920;4.492;2022-10-31T17:06:13;34.17;;;14.13;;
44143;SDS011;43510;51.920;4.492;2022-10-31T17:08:39;26.02;;;14.13;;
44143;SDS011;43510;51.920;4.492;2022-10-31T17:11:08;27.90;;;13.57;;
44143;SDS011;43510;51.920;4.492;2022-10-31T17:13:40;34.47;;;13.32;;
44143;SDS011;43510;51.920;4.492;2022-10-31T17:16:05;27.85;;;13.45;;
44143;SDS011;43510;51.920;4.492;2022-10-31T17:18:31;29.45;;;13.55;;
44143;SDS011;43510;51.920;4.492;2022-10-31T17:20:57;29.48;;;12.43;;
44143;SDS011;43510;51.920;4.492;2022-10-31T17:23:26;26.42;;;11.68;;
44143;SDS011;43510;51.920;4.492;2022-10-31T17:25:53;27.52;;;12.68;;